createdAt,value
2023-02-22T00:00:07.124Z,2.00
2023-02-22T00:01:07.363Z,2.90
2023-02-22T00:02:07.592Z,2.10
2023-02-22T00:03:07.754Z,3.20
2023-02-22T00:04:07.957Z,2.60
2023-02-22T00:05:08.060Z,2.30
2023-02-22T00:06:08.205Z,2.50
2023-02-22T00:07:08.425Z,2.10
2023-02-22T00:08:08.646Z,2.50
2023-02-22T00:09:08.887Z,2.70
2023-02-22T00:10:09.987Z,2.40
2023-02-22T00:11:09.264Z,2.50
2023-02-22T00:12:09.502Z,1.70
2023-02-22T00:13:09.709Z,2.20
2023-02-22T00:14:09.939Z,2.20
2023-02-22T00:15:10.958Z,2.90
2023-02-22T00:16:10.472Z,1.60
2023-02-22T00:17:10.530Z,2.10
2023-02-22T00:18:10.766Z,2.70
2023-02-22T00:19:10.881Z,2.30
2023-02-22T00:20:11.931Z,2.60
2023-02-22T00:21:11.210Z,2.20
2023-02-22T00:22:11.441Z,2.30
2023-02-22T00:23:11.652Z,2.20
2023-02-22T00:24:11.891Z,3.40
2023-02-22T00:25:13.733Z,2.40
2023-02-22T00:26:12.283Z,2.80
2023-02-22T00:27:12.511Z,2.50
2023-02-22T00:28:12.723Z,2.40
2023-02-22T00:29:12.924Z,2.90
2023-02-22T00:30:13.157Z,2.30
2023-02-22T00:31:13.365Z,2.60
2023-02-22T00:32:13.690Z,2.30
2023-02-22T00:33:13.784Z,2.40
2023-02-22T00:34:14.003Z,2.50
2023-02-22T00:35:14.206Z,2.40
2023-02-22T00:36:14.452Z,2.10
2023-02-22T00:37:14.558Z,2.20
2023-02-22T00:38:14.862Z,2.20
2023-02-22T00:39:14.952Z,1.90
2023-02-22T00:40:15.068Z,2.80
2023-02-22T00:41:15.768Z,3.20
2023-02-22T00:42:15.437Z,2.30
2023-02-22T00:43:15.651Z,2.00
2023-02-22T00:44:15.877Z,2.10
2023-02-22T00:45:16.078Z,2.40
2023-02-22T00:46:16.414Z,2.30
2023-02-22T00:47:16.526Z,3.00
2023-02-22T00:48:16.758Z,1.90
2023-02-22T00:49:16.848Z,2.10
2023-02-22T00:50:17.119Z,2.60
2023-02-22T00:51:17.662Z,2.20
2023-02-22T00:52:17.510Z,2.10
2023-02-22T00:53:17.714Z,2.30
2023-02-22T00:54:17.949Z,2.90
2023-02-22T00:55:18.163Z,2.40
2023-02-22T00:56:18.403Z,2.50
2023-02-22T00:57:18.590Z,1.90
2023-02-22T00:58:18.829Z,3.10
2023-02-22T00:59:19.042Z,1.90
2023-02-22T01:00:19.286Z,2.20
2023-02-22T01:01:19.637Z,2.50
2023-02-22T01:02:19.614Z,1.60
2023-02-22T01:03:19.750Z,2.50
2023-02-22T01:04:19.985Z,2.40
2023-02-22T01:05:20.103Z,1.80
2023-02-22T01:06:20.398Z,1.90
2023-02-22T01:07:20.474Z,2.50
2023-02-22T01:08:20.694Z,2.40
2023-02-22T01:09:20.919Z,2.10
2023-02-22T01:10:21.161Z,2.10
2023-02-22T01:11:21.291Z,2.50
2023-02-22T01:12:21.505Z,2.00
2023-02-22T01:13:21.717Z,2.50
2023-02-22T01:14:21.944Z,2.20
2023-02-22T01:15:22.145Z,3.40
2023-02-22T01:16:22.444Z,2.10
2023-02-22T01:17:22.506Z,1.90
2023-02-22T01:18:22.737Z,2.40
2023-02-22T01:19:22.851Z,2.00
2023-02-22T01:20:23.180Z,1.90
2023-02-22T01:21:23.246Z,2.40
2023-02-22T01:22:23.477Z,1.90
2023-02-22T01:23:23.667Z,2.50
2023-02-22T01:24:23.903Z,1.90
2023-02-22T01:25:24.113Z,2.50
2023-02-22T01:26:24.378Z,2.00
2023-02-22T01:27:24.537Z,2.10
2023-02-22T01:28:24.770Z,2.90
2023-02-22T01:29:24.864Z,2.20
2023-02-22T01:30:25.175Z,3.30
2023-02-22T01:31:25.262Z,2.60
2023-02-22T01:32:25.360Z,2.40
2023-02-22T01:33:25.571Z,2.60
2023-02-22T01:34:25.804Z,2.40
2023-02-22T01:35:26.038Z,2.10
2023-02-22T01:36:26.274Z,2.00
2023-02-22T01:37:26.377Z,2.60
2023-02-22T01:38:26.641Z,2.70
2023-02-22T01:39:26.852Z,2.00
2023-02-22T01:40:27.092Z,2.30
2023-02-22T01:41:27.301Z,2.50
2023-02-22T01:42:27.530Z,2.30
2023-02-22T01:43:27.742Z,2.40
2023-02-22T01:44:27.981Z,2.70
2023-02-22T01:45:28.063Z,3.00
2023-02-22T01:46:28.312Z,2.10
2023-02-22T01:47:28.489Z,2.50
2023-02-22T01:48:28.722Z,1.90
2023-02-22T01:49:28.932Z,1.70
2023-02-22T01:50:29.163Z,2.00
2023-02-22T01:51:29.390Z,2.40
2023-02-22T01:52:29.623Z,2.00
2023-02-22T01:53:29.835Z,2.30
2023-02-22T01:54:30.064Z,2.20
2023-02-22T01:55:30.272Z,2.40
2023-02-22T01:56:30.556Z,2.20
2023-02-22T01:57:30.621Z,2.30
2023-02-22T01:58:30.862Z,1.70
2023-02-22T01:59:31.063Z,1.90
2023-02-22T02:00:31.293Z,2.20
2023-02-22T02:01:31.513Z,2.40
2023-02-22T02:02:31.744Z,2.10
2023-02-22T02:03:31.952Z,2.70
2023-02-22T02:04:32.245Z,1.80
2023-02-22T02:05:32.310Z,1.80
2023-02-22T02:06:32.536Z,2.30
2023-02-22T02:07:32.754Z,2.00
2023-02-22T02:08:32.976Z,1.70
2023-02-22T02:09:33.195Z,2.60
2023-02-22T02:10:33.437Z,2.40
2023-02-22T02:11:33.606Z,2.10
2023-02-22T02:12:33.837Z,2.00
2023-02-22T02:13:34.048Z,1.90
2023-02-22T02:14:34.278Z,1.90
2023-02-22T02:15:34.481Z,2.00
2023-02-22T02:16:34.742Z,1.90
2023-02-22T02:17:34.930Z,1.70
2023-02-22T02:18:35.161Z,2.20
2023-02-22T02:19:35.392Z,2.00
2023-02-22T02:20:35.511Z,2.40
2023-02-22T02:21:35.621Z,2.70
2023-02-22T02:22:35.837Z,1.80
2023-02-22T02:23:35.931Z,2.20
2023-02-22T02:24:36.182Z,2.50
2023-02-22T02:25:36.381Z,2.10
2023-02-22T02:26:37.193Z,2.20
2023-02-22T02:27:36.747Z,1.90
2023-02-22T02:28:36.984Z,2.00
2023-02-22T02:29:37.217Z,2.10
2023-02-22T02:30:37.481Z,2.50
2023-02-22T02:31:37.613Z,2.90
2023-02-22T02:32:37.754Z,1.90
2023-02-22T02:33:37.929Z,2.40
2023-02-22T02:34:38.167Z,2.20
2023-02-22T02:35:38.377Z,1.80
2023-02-22T02:36:38.619Z,2.60
2023-02-22T02:37:38.840Z,2.10
2023-02-22T02:38:39.147Z,2.30
2023-02-22T02:39:39.229Z,2.10
2023-02-22T02:40:39.474Z,1.60
2023-02-22T02:41:39.602Z,2.10
2023-02-22T02:42:39.809Z,2.50
2023-02-22T02:43:40.034Z,2.10
2023-02-22T02:44:40.260Z,2.10
2023-02-22T02:45:40.472Z,1.80
2023-02-22T02:46:40.710Z,1.80
2023-02-22T02:47:40.811Z,1.80
2023-02-22T02:48:41.058Z,1.40
2023-02-22T02:49:41.143Z,2.10
2023-02-22T02:50:41.362Z,1.70
2023-02-22T02:51:41.601Z,2.30
2023-02-22T02:52:41.823Z,1.80
2023-02-22T02:53:42.033Z,2.50
2023-02-22T02:54:42.270Z,2.30
2023-02-22T02:55:42.487Z,2.10
2023-02-22T02:56:42.746Z,4.40
2023-02-22T02:57:42.925Z,1.80
2023-02-22T02:58:43.154Z,2.00
2023-02-22T02:59:43.355Z,1.80
2023-02-22T03:00:43.573Z,2.20
2023-02-22T03:01:43.800Z,1.70
2023-02-22T03:02:44.026Z,2.10
2023-02-22T03:03:44.210Z,1.70
2023-02-22T03:04:44.443Z,2.00
2023-02-22T03:05:44.538Z,1.90
2023-02-22T03:06:44.768Z,2.20
2023-02-22T03:07:45.148Z,2.00
2023-02-22T03:08:45.231Z,2.20
2023-02-22T03:09:45.430Z,2.20
2023-02-22T03:10:45.671Z,2.10
2023-02-22T03:11:45.870Z,1.80
2023-02-22T03:12:46.107Z,1.80
2023-02-22T03:13:46.311Z,2.20
2023-02-22T03:14:46.532Z,1.80
2023-02-22T03:15:46.740Z,1.70
2023-02-22T03:16:46.971Z,1.60
2023-02-22T03:17:47.180Z,1.80
2023-02-22T03:18:47.413Z,1.40
2023-02-22T03:19:47.620Z,1.80
2023-02-22T03:20:47.877Z,2.10
2023-02-22T03:21:48.065Z,2.40
2023-02-22T03:22:48.316Z,1.70
2023-02-22T03:23:48.425Z,1.50
2023-02-22T03:24:48.664Z,1.70
2023-02-22T03:25:48.865Z,1.90
2023-02-22T03:26:49.175Z,1.60
2023-02-22T03:27:49.232Z,1.90
2023-02-22T03:28:49.464Z,1.70
2023-02-22T03:29:49.668Z,1.70
2023-02-22T03:30:49.967Z,1.90
2023-02-22T03:31:50.201Z,1.90
2023-02-22T03:32:50.290Z,1.90
2023-02-22T03:33:50.360Z,1.80
2023-02-22T03:34:50.583Z,1.60
2023-02-22T03:35:50.796Z,1.30
2023-02-22T03:36:51.033Z,2.20
2023-02-22T03:37:51.250Z,2.40
2023-02-22T03:38:51.484Z,2.40
2023-02-22T03:39:51.705Z,1.40
2023-02-22T03:40:51.933Z,1.70
2023-02-22T03:41:52.145Z,1.80
2023-02-22T03:42:52.372Z,1.90
2023-02-22T03:43:52.574Z,1.30
2023-02-22T03:44:52.808Z,1.80
2023-02-22T03:45:53.035Z,2.00
2023-02-22T03:46:53.265Z,1.70
2023-02-22T03:47:53.485Z,1.70
2023-02-22T03:48:53.706Z,2.00
2023-02-22T03:49:53.914Z,2.10
2023-02-22T03:50:54.153Z,1.70
2023-02-22T03:51:54.257Z,1.90
2023-02-22T03:52:54.494Z,1.70
2023-02-22T03:53:54.706Z,1.80
2023-02-22T03:54:54.944Z,1.50
2023-02-22T03:55:55.137Z,1.90
2023-02-22T03:56:55.386Z,1.50
2023-02-22T03:57:55.597Z,2.20
2023-02-22T03:58:55.839Z,2.00
2023-02-22T03:59:56.057Z,1.40
2023-02-22T04:00:56.159Z,1.90
2023-02-22T04:01:56.398Z,1.50
2023-02-22T04:02:56.635Z,2.20
2023-02-22T04:03:56.859Z,1.50
2023-02-22T04:04:57.115Z,1.20
2023-02-22T04:05:57.285Z,1.70
2023-02-22T04:06:57.452Z,1.50
2023-02-22T04:07:57.688Z,3.30
2023-02-22T04:08:57.918Z,1.80
2023-02-22T04:09:58.149Z,2.10
2023-02-22T04:10:58.363Z,1.90
2023-02-22T04:11:58.591Z,1.60
2023-02-22T04:12:58.807Z,1.90
2023-02-22T04:13:59.561Z,1.50
2023-02-22T04:14:59.201Z,1.60
2023-02-22T04:15:59.475Z,2.10
2023-02-22T04:16:59.562Z,1.70
2023-02-22T04:17:59.790Z,1.40
2023-02-22T04:18:59.993Z,1.70
2023-02-22T04:20:00.210Z,1.40
2023-02-22T04:21:00.425Z,2.00
2023-02-22T04:22:00.663Z,1.40
2023-02-22T04:23:00.875Z,2.20
2023-02-22T04:24:01.129Z,1.70
2023-02-22T04:25:01.281Z,1.50
2023-02-22T04:26:01.467Z,1.80
2023-02-22T04:27:01.690Z,2.00
2023-02-22T04:28:01.907Z,2.10
2023-02-22T04:29:02.116Z,1.80
2023-02-22T04:30:02.345Z,1.70
2023-02-22T04:31:02.604Z,1.80
2023-02-22T04:32:02.860Z,1.50
2023-02-22T04:33:02.978Z,1.60
2023-02-22T04:34:03.110Z,1.70
2023-02-22T04:35:03.318Z,2.20
2023-02-22T04:36:03.548Z,1.70
2023-02-22T04:37:03.759Z,1.50
2023-02-22T04:38:03.989Z,2.40
2023-02-22T04:39:04.323Z,1.90
2023-02-22T04:40:04.430Z,2.10
2023-02-22T04:41:04.660Z,1.50
2023-02-22T04:42:04.882Z,1.80
2023-02-22T04:43:05.091Z,1.70
2023-02-22T04:44:05.330Z,2.10
2023-02-22T04:45:05.446Z,2.00
2023-02-22T04:46:05.703Z,1.40
2023-02-22T04:47:05.872Z,1.60
2023-02-22T04:48:06.104Z,2.50
2023-02-22T04:49:06.304Z,1.30
2023-02-22T04:50:06.533Z,2.00
2023-02-22T04:51:06.750Z,1.70
2023-02-22T04:52:06.984Z,2.00
2023-02-22T04:53:07.183Z,1.40
2023-02-22T04:54:07.417Z,1.60
2023-02-22T04:55:07.645Z,1.70
2023-02-22T04:56:07.885Z,1.40
2023-02-22T04:57:08.153Z,2.30
2023-02-22T04:58:09.550Z,1.60
2023-02-22T04:59:08.489Z,2.20
2023-02-22T05:00:08.725Z,1.40
2023-02-22T05:01:08.816Z,2.30
2023-02-22T05:02:09.050Z,2.10
2023-02-22T05:03:09.260Z,1.90
2023-02-22T05:04:09.497Z,1.80
2023-02-22T05:05:09.698Z,1.90
2023-02-22T05:06:09.929Z,2.00
2023-02-22T05:07:10.135Z,2.00
2023-02-22T05:08:10.408Z,1.70
2023-02-22T05:09:10.568Z,2.00
2023-02-22T05:10:10.785Z,1.40
2023-02-22T05:11:10.987Z,1.60
2023-02-22T05:12:11.236Z,1.30
2023-02-22T05:13:11.434Z,1.30
2023-02-22T05:14:11.660Z,1.40
2023-02-22T05:15:11.878Z,1.80
2023-02-22T05:16:12.260Z,1.50
2023-02-22T05:17:12.328Z,1.10
2023-02-22T05:18:12.509Z,1.90
2023-02-22T05:19:12.855Z,1.20
2023-02-22T05:20:12.762Z,1.50
2023-02-22T05:21:12.974Z,1.50
2023-02-22T05:22:13.199Z,1.40
2023-02-22T05:23:13.313Z,2.00
2023-02-22T05:24:13.568Z,2.20
2023-02-22T05:25:13.770Z,1.60
2023-02-22T05:26:13.982Z,2.30
2023-02-22T05:27:14.095Z,2.50
2023-02-22T05:28:14.324Z,1.80
2023-02-22T05:29:14.535Z,1.90
2023-02-22T05:30:15.791Z,1.30
2023-02-22T05:31:15.422Z,1.90
2023-02-22T05:32:15.223Z,1.70
2023-02-22T05:33:15.408Z,1.20
2023-02-22T05:34:15.644Z,1.50
2023-02-22T05:35:15.845Z,1.80
2023-02-22T05:36:16.076Z,2.00
2023-02-22T05:37:16.287Z,1.40
2023-02-22T05:38:16.527Z,1.70
2023-02-22T05:39:16.639Z,1.40
2023-02-22T05:40:16.861Z,1.40
2023-02-22T05:41:17.399Z,1.70
2023-02-22T05:42:17.221Z,2.00
2023-02-22T05:43:17.424Z,1.80
2023-02-22T05:44:17.652Z,1.60
2023-02-22T05:45:17.857Z,1.40
2023-02-22T05:46:18.122Z,1.60
2023-02-22T05:47:18.182Z,1.40
2023-02-22T05:48:18.403Z,1.60
2023-02-22T05:49:18.623Z,1.80
2023-02-22T05:50:18.857Z,1.70
2023-02-22T05:51:19.182Z,1.40
2023-02-22T05:52:19.294Z,1.70
2023-02-22T05:53:19.506Z,1.40
2023-02-22T05:54:19.725Z,1.80
2023-02-22T05:55:19.935Z,1.20
2023-02-22T05:56:20.164Z,1.60
2023-02-22T05:57:20.274Z,1.50
2023-02-22T05:58:20.557Z,1.80
2023-02-22T05:59:20.624Z,1.60
2023-02-22T06:00:20.855Z,1.30
2023-02-22T06:01:21.136Z,1.80
2023-02-22T06:02:21.342Z,3.00
2023-02-22T06:03:21.430Z,1.80
2023-02-22T06:04:21.669Z,1.90
2023-02-22T06:05:21.904Z,1.70
2023-02-22T06:06:22.554Z,1.50
2023-02-22T06:07:22.228Z,1.70
2023-02-22T06:08:22.427Z,1.80
2023-02-22T06:09:22.525Z,1.80
2023-02-22T06:10:22.772Z,1.70
2023-02-22T06:11:22.988Z,1.60
2023-02-22T06:12:23.227Z,1.40
2023-02-22T06:13:23.333Z,1.40
2023-02-22T06:14:23.577Z,2.10
2023-02-22T06:15:23.685Z,2.00
2023-02-22T06:16:24.122Z,2.80
2023-02-22T06:17:24.063Z,1.20
2023-02-22T06:18:24.288Z,1.40
2023-02-22T06:19:24.398Z,1.50
2023-02-22T06:20:24.641Z,1.40
2023-02-22T06:21:24.746Z,1.40
2023-02-22T06:22:24.998Z,1.40
2023-02-22T06:23:25.111Z,2.60
2023-02-22T06:24:25.373Z,1.30
2023-02-22T06:25:25.478Z,1.90
2023-02-22T06:26:25.722Z,3.20
2023-02-22T06:27:25.830Z,1.10
2023-02-22T06:28:26.101Z,1.40
2023-02-22T06:29:26.211Z,2.90
2023-02-22T06:30:26.481Z,2.00
2023-02-22T06:31:26.574Z,2.10
2023-02-22T06:32:26.884Z,2.00
2023-02-22T06:33:26.969Z,2.00
2023-02-22T06:34:27.224Z,2.20
2023-02-22T06:35:27.334Z,2.40
2023-02-22T06:36:27.634Z,2.10
2023-02-22T06:37:27.703Z,1.70
2023-02-22T06:38:27.998Z,3.10
2023-02-22T06:39:28.072Z,1.90
2023-02-22T06:40:28.334Z,1.50
2023-02-22T06:41:28.451Z,1.50
2023-02-22T06:42:28.774Z,1.70
2023-02-22T06:43:28.857Z,1.70
2023-02-22T06:44:29.117Z,1.80
2023-02-22T06:45:29.272Z,1.40
2023-02-22T06:46:29.403Z,1.60
2023-02-22T06:47:29.543Z,1.50
2023-02-22T06:48:29.784Z,2.00
2023-02-22T06:49:29.906Z,1.80
2023-02-22T06:50:30.185Z,2.20
2023-02-22T06:51:30.307Z,2.20
2023-02-22T06:52:30.578Z,2.50
2023-02-22T06:53:30.717Z,1.40
2023-02-22T06:54:30.876Z,2.40
2023-02-22T06:55:30.961Z,1.90
2023-02-22T06:56:31.198Z,1.70
2023-02-22T06:57:31.320Z,2.50
2023-02-22T06:58:31.569Z,2.30
2023-02-22T06:59:31.689Z,2.30
2023-02-22T07:00:31.957Z,1.40
2023-02-22T07:01:32.081Z,1.30
2023-02-22T07:02:32.358Z,2.20
2023-02-22T07:03:32.529Z,1.80
2023-02-22T07:04:32.632Z,2.70
2023-02-22T07:05:32.742Z,1.50
2023-02-22T07:06:33.006Z,2.90
2023-02-22T07:07:33.134Z,2.70
2023-02-22T07:08:33.286Z,2.00
2023-02-22T07:09:33.415Z,3.20
2023-02-22T07:10:33.560Z,2.80
2023-02-22T07:11:33.688Z,2.50
2023-02-22T07:12:33.958Z,3.30
2023-02-22T07:13:34.072Z,2.20
2023-02-22T07:14:34.336Z,2.20
2023-02-22T07:15:34.459Z,1.80
2023-02-22T07:16:34.766Z,3.20
2023-02-22T07:17:34.849Z,2.00
2023-02-22T07:18:34.989Z,1.60
2023-02-22T07:19:35.129Z,4.10
2023-02-22T07:20:35.262Z,3.10
2023-02-22T07:21:35.391Z,2.40
2023-02-22T07:22:35.672Z,4.60
2023-02-22T07:23:35.792Z,1.90
2023-02-22T07:24:35.943Z,1.50
2023-02-22T07:25:36.110Z,3.10
2023-02-22T07:26:36.271Z,4.60
2023-02-22T07:27:36.385Z,3.00
2023-02-22T07:28:36.636Z,1.90
2023-02-22T07:29:36.863Z,4.40
2023-02-22T07:30:36.985Z,5.00
2023-02-22T07:31:37.086Z,2.30
2023-02-22T07:32:37.468Z,3.60
2023-02-22T07:33:37.457Z,2.00
2023-02-22T07:34:37.614Z,2.10
2023-02-22T07:35:37.779Z,4.40
2023-02-22T07:36:37.932Z,4.00
2023-02-22T07:37:38.121Z,5.90
2023-02-22T07:38:38.218Z,3.10
2023-02-22T07:39:38.349Z,2.40
2023-02-22T07:40:38.522Z,2.20
2023-02-22T07:41:38.619Z,3.00
2023-02-22T07:42:38.739Z,4.50
2023-02-22T07:43:38.890Z,6.00
2023-02-22T07:44:39.009Z,4.50
2023-02-22T07:45:39.285Z,2.80
2023-02-22T07:46:39.367Z,6.10
2023-02-22T07:47:40.998Z,3.80
2023-02-22T07:48:39.682Z,5.40
2023-02-22T07:49:39.820Z,3.30
2023-02-22T07:50:39.959Z,3.40
2023-02-22T07:51:40.212Z,5.30
2023-02-22T07:52:40.309Z,4.80
2023-02-22T07:53:40.562Z,4.40
2023-02-22T07:54:40.683Z,4.60
2023-02-22T07:55:40.844Z,4.80
2023-02-22T07:56:40.983Z,4.70
2023-02-22T07:57:41.115Z,3.00
2023-02-22T07:58:41.243Z,3.80
2023-02-22T07:59:41.404Z,2.60
2023-02-22T08:00:41.548Z,3.70
2023-02-22T08:01:41.705Z,4.50
2023-02-22T08:02:41.871Z,3.30
2023-02-22T08:03:42.039Z,2.90
2023-02-22T08:04:42.176Z,4.50
2023-02-22T08:05:42.358Z,2.60
2023-02-22T08:06:42.446Z,4.00
2023-02-22T08:07:42.599Z,5.10
2023-02-22T08:08:42.769Z,3.00
2023-02-22T08:09:42.897Z,3.20
2023-02-22T08:10:43.029Z,3.80
2023-02-22T08:11:43.205Z,3.80
2023-02-22T08:12:43.300Z,4.50
2023-02-22T08:13:43.446Z,3.40
2023-02-22T08:14:43.574Z,3.80
2023-02-22T08:15:43.720Z,5.20
2023-02-22T08:16:43.872Z,4.80
2023-02-22T08:17:44.011Z,3.80
2023-02-22T08:18:44.271Z,4.50
2023-02-22T08:19:44.428Z,2.90
2023-02-22T08:20:44.585Z,3.40
2023-02-22T08:21:44.720Z,2.00
2023-02-22T08:22:44.870Z,2.70
2023-02-22T08:23:45.004Z,3.30
2023-02-22T08:24:45.172Z,4.30
2023-02-22T08:25:45.322Z,3.90
2023-02-22T08:26:45.476Z,2.20
2023-02-22T08:27:45.604Z,3.20
2023-02-22T08:28:45.762Z,2.50
2023-02-22T08:29:45.881Z,2.10
2023-02-22T08:30:46.031Z,2.60
2023-02-22T08:31:46.208Z,3.20
2023-02-22T08:32:46.392Z,3.60
2023-02-22T08:33:46.494Z,2.60
2023-02-22T08:34:46.764Z,3.20
2023-02-22T08:35:46.837Z,3.20
2023-02-22T08:36:47.126Z,3.90
2023-02-22T08:37:47.098Z,2.70
2023-02-22T08:38:47.247Z,3.70
2023-02-22T08:39:47.357Z,2.80
2023-02-22T08:40:47.501Z,2.50
2023-02-22T08:41:47.608Z,3.10
2023-02-22T08:42:47.758Z,1.80
2023-02-22T08:43:47.877Z,2.70
2023-02-22T08:44:48.021Z,4.40
2023-02-22T08:45:48.204Z,2.40
2023-02-22T08:46:48.365Z,4.50
2023-02-22T08:47:48.470Z,1.60
2023-02-22T08:48:48.605Z,2.50
2023-02-22T08:49:48.706Z,3.00
2023-02-22T08:50:48.836Z,3.60
2023-02-22T08:51:48.960Z,2.40
2023-02-22T08:52:49.086Z,2.70
2023-02-22T08:53:49.185Z,2.70
2023-02-22T08:54:49.312Z,3.00
2023-02-22T08:55:49.417Z,2.30
2023-02-22T08:56:49.564Z,2.90
2023-02-22T08:57:49.667Z,3.50
2023-02-22T08:58:49.790Z,5.70
2023-02-22T08:59:49.922Z,4.30
2023-02-22T09:00:50.050Z,3.60
2023-02-22T09:01:50.190Z,3.30
2023-02-22T09:02:50.310Z,3.80
2023-02-22T09:03:50.423Z,2.30
2023-02-22T09:04:50.519Z,2.30
2023-02-22T09:05:50.763Z,1.90
2023-02-22T09:06:50.840Z,2.90
2023-02-22T09:07:50.959Z,4.30
2023-02-22T09:08:51.100Z,3.30
2023-02-22T09:09:51.166Z,2.80
2023-02-22T09:10:51.277Z,4.60
2023-02-22T09:11:53.061Z,2.30
2023-02-22T09:12:51.560Z,2.20
2023-02-22T09:13:51.677Z,1.50
2023-02-22T09:14:51.831Z,2.40
2023-02-22T09:15:51.851Z,2.60
2023-02-22T09:16:52.075Z,2.60
2023-02-22T09:17:53.079Z,2.80
2023-02-22T09:18:52.256Z,3.70
2023-02-22T09:19:52.342Z,2.30
2023-02-22T09:20:52.465Z,3.40
2023-02-22T09:21:52.524Z,3.70
2023-02-22T09:22:52.676Z,3.40
2023-02-22T09:23:52.755Z,3.30
2023-02-22T09:24:52.873Z,4.50
2023-02-22T09:25:52.953Z,5.80
2023-02-22T09:26:53.167Z,4.20
2023-02-22T09:27:53.218Z,4.50
2023-02-22T09:28:53.336Z,2.80
2023-02-22T09:29:53.388Z,3.60
2023-02-22T09:30:53.615Z,4.20
2023-02-22T09:31:53.996Z,3.40
2023-02-22T09:32:54.106Z,3.20
2023-02-22T09:33:54.106Z,3.10
2023-02-22T09:34:54.198Z,2.90
2023-02-22T09:35:54.268Z,1.90
2023-02-22T09:36:54.490Z,3.10
2023-02-22T09:37:54.558Z,2.80
2023-02-22T09:38:54.780Z,2.90
2023-02-22T09:39:54.985Z,4.20
2023-02-22T09:40:55.070Z,5.00
2023-02-22T09:41:55.147Z,2.70
2023-02-22T09:42:55.231Z,2.90
2023-02-22T09:43:55.960Z,2.90
2023-02-22T09:44:55.420Z,2.30
2023-02-22T09:45:55.560Z,3.60
2023-02-22T09:46:55.629Z,3.90
2023-02-22T09:47:56.901Z,2.60
2023-02-22T09:48:55.932Z,4.70
2023-02-22T09:49:55.994Z,2.40
2023-02-22T09:50:56.098Z,2.10
2023-02-22T09:51:56.166Z,2.80
2023-02-22T09:52:56.383Z,3.40
2023-02-22T09:53:56.465Z,4.90
2023-02-22T09:54:56.677Z,1.60
2023-02-22T09:55:56.747Z,2.10
2023-02-22T09:56:57.034Z,3.70
2023-02-22T09:57:57.035Z,2.30
2023-02-22T09:58:57.136Z,3.80
2023-02-22T09:59:57.219Z,5.60
2023-02-22T10:00:57.350Z,3.00
2023-02-22T10:01:57.408Z,1.90
2023-02-22T10:02:57.531Z,2.20
2023-02-22T10:03:57.651Z,4.50
2023-02-22T10:04:57.725Z,4.10
2023-02-22T10:05:57.803Z,3.20
2023-02-22T10:06:58.019Z,3.80
2023-02-22T10:07:58.082Z,3.70
2023-02-22T10:08:58.301Z,4.00
2023-02-22T10:09:58.394Z,2.90
2023-02-22T10:10:58.513Z,3.00
2023-02-22T10:11:58.611Z,2.10
2023-02-22T10:12:58.834Z,2.80
2023-02-22T10:13:58.892Z,3.60
2023-02-22T10:14:58.995Z,1.40
2023-02-22T10:15:59.084Z,2.70
2023-02-22T10:16:59.194Z,3.10
2023-02-22T10:17:59.275Z,4.60
2023-02-22T10:18:59.506Z,2.10
2023-02-22T10:19:59.596Z,5.30
2023-02-22T10:20:59.824Z,3.70
2023-02-22T10:21:59.915Z,3.10
2023-02-22T10:23:00.018Z,2.40
2023-02-22T10:24:00.112Z,2.60
2023-02-22T10:25:00.232Z,3.30
2023-02-22T10:26:00.320Z,3.40
2023-02-22T10:27:00.428Z,2.60
2023-02-22T10:28:00.522Z,2.60
2023-02-22T10:29:00.750Z,2.40
2023-02-22T10:30:01.170Z,3.80
2023-02-22T10:31:01.009Z,1.80
2023-02-22T10:32:01.168Z,4.20
2023-02-22T10:33:01.304Z,2.80
2023-02-22T10:34:01.384Z,2.30
2023-02-22T10:35:01.659Z,6.90
2023-02-22T10:36:01.717Z,2.80
2023-02-22T10:37:01.946Z,3.10
2023-02-22T10:38:02.026Z,1.70
2023-02-22T10:39:02.260Z,6.40
2023-02-22T10:40:02.327Z,3.30
2023-02-22T10:41:02.556Z,2.10
2023-02-22T10:42:02.648Z,2.80
2023-02-22T10:43:02.767Z,4.40
2023-02-22T10:44:02.860Z,6.10
2023-02-22T10:45:02.973Z,2.00
2023-02-22T10:46:03.103Z,2.10
2023-02-22T10:47:03.185Z,1.80
2023-02-22T10:48:03.262Z,3.00
2023-02-22T10:49:03.500Z,3.80
2023-02-22T10:50:03.542Z,2.30
2023-02-22T10:51:03.774Z,3.60
2023-02-22T10:52:03.842Z,4.10
2023-02-22T10:53:04.080Z,2.10
2023-02-22T10:54:04.249Z,3.00
2023-02-22T10:55:14.992Z,1.50
2023-02-22T10:56:05.569Z,3.30
2023-02-22T10:57:04.635Z,2.10
2023-02-22T10:58:04.726Z,3.30
2023-02-22T10:59:04.981Z,2.80
2023-02-22T11:00:05.035Z,1.70
2023-02-22T11:01:05.279Z,2.60
2023-02-22T11:02:05.318Z,3.60
2023-02-22T11:03:05.540Z,1.90
2023-02-22T11:04:05.628Z,6.40
2023-02-22T11:05:05.861Z,2.80
2023-02-22T11:06:07.181Z,3.10
2023-02-22T11:07:06.017Z,3.40
2023-02-22T11:08:06.107Z,5.00
2023-02-22T11:09:06.339Z,2.10
2023-02-22T11:10:06.417Z,2.90
2023-02-22T11:11:06.638Z,4.20
2023-02-22T11:12:06.724Z,3.70
2023-02-22T11:13:06.935Z,5.70
2023-02-22T11:14:07.029Z,4.50
2023-02-22T11:15:07.132Z,6.00
2023-02-22T11:16:07.345Z,3.90
2023-02-22T11:17:07.407Z,4.40
2023-02-22T11:18:08.882Z,6.80
2023-02-22T11:19:07.609Z,3.30
2023-02-22T11:20:07.707Z,4.80
2023-02-22T11:21:07.850Z,4.20
2023-02-22T11:22:07.910Z,2.90
2023-02-22T11:23:08.051Z,2.50
2023-02-22T11:24:08.141Z,4.20
2023-02-22T11:25:08.364Z,3.20
2023-02-22T11:26:08.466Z,2.60
2023-02-22T11:27:08.602Z,3.10
2023-02-22T11:28:08.703Z,5.80
2023-02-22T11:29:08.944Z,5.80
2023-02-22T11:30:09.097Z,5.80
2023-02-22T11:31:09.375Z,2.00
2023-02-22T11:32:09.410Z,4.30
2023-02-22T11:33:09.512Z,6.70
2023-02-22T11:34:09.640Z,5.50
2023-02-22T11:35:09.769Z,2.50
2023-02-22T11:36:09.856Z,2.50
2023-02-22T11:37:09.994Z,6.50
2023-02-22T11:38:10.107Z,2.90
2023-02-22T11:39:10.316Z,4.50
2023-02-22T11:40:10.436Z,4.30
2023-02-22T11:41:10.714Z,2.90
2023-02-22T11:42:10.774Z,2.90
2023-02-22T11:43:11.034Z,4.30
2023-02-22T11:44:11.173Z,2.80
2023-02-22T11:45:11.295Z,7.90
2023-02-22T11:46:11.455Z,6.00
2023-02-22T11:47:11.526Z,5.50
2023-02-22T11:48:11.636Z,3.30
2023-02-22T11:49:11.779Z,5.20
2023-02-22T11:50:11.890Z,3.90
2023-02-22T11:51:14.382Z,3.10
2023-02-22T11:52:12.176Z,4.20
2023-02-22T11:53:12.424Z,4.80
2023-02-22T11:54:12.568Z,4.40
2023-02-22T11:55:12.702Z,3.90
2023-02-22T11:56:12.821Z,3.50
2023-02-22T11:57:12.965Z,4.90
2023-02-22T11:58:13.876Z,5.90
2023-02-22T11:59:13.358Z,2.20
2023-02-22T12:00:13.525Z,2.50
2023-02-22T12:01:13.644Z,3.80
2023-02-22T12:02:13.764Z,2.70
2023-02-22T12:03:13.936Z,4.40
2023-02-22T12:04:14.121Z,4.20
2023-02-22T12:05:14.255Z,3.20
2023-02-22T12:06:14.436Z,3.00
2023-02-22T12:07:14.570Z,4.40
2023-02-22T12:08:19.747Z,4.30
2023-02-22T12:09:15.940Z,3.80
2023-02-22T12:10:15.126Z,5.00
2023-02-22T12:11:15.382Z,5.20
2023-02-22T12:12:15.518Z,5.60
2023-02-22T12:13:15.644Z,2.40
2023-02-22T12:14:15.770Z,2.80
2023-02-22T12:15:15.915Z,13.70
2023-02-22T12:16:16.365Z,11.40
2023-02-22T12:17:16.235Z,15.00
2023-02-22T12:18:16.405Z,7.10
2023-02-22T12:19:16.561Z,7.10
2023-02-22T12:20:16.663Z,4.90
2023-02-22T12:21:16.851Z,4.50
2023-02-22T12:22:16.926Z,3.60
2023-02-22T12:23:17.193Z,5.10
2023-02-22T12:24:17.326Z,5.40
2023-02-22T12:25:17.577Z,6.30
2023-02-22T12:26:17.858Z,6.90
2023-02-22T12:27:17.889Z,6.00
2023-02-22T12:28:24.682Z,3.70
2023-02-22T12:29:19.328Z,7.00
2023-02-22T12:30:18.531Z,9.40
2023-02-22T12:31:18.958Z,4.60
2023-02-22T12:32:18.843Z,9.30
2023-02-22T12:33:18.952Z,7.60
2023-02-22T12:34:19.134Z,9.10
2023-02-22T12:35:19.229Z,8.30
2023-02-22T12:36:19.374Z,7.20
2023-02-22T12:37:19.502Z,5.60
2023-02-22T12:38:19.766Z,7.90
2023-02-22T12:39:19.936Z,5.00
2023-02-22T12:40:20.066Z,39.00
2023-02-22T12:41:20.221Z,24.20
2023-02-22T12:42:20.446Z,8.80
2023-02-22T12:43:20.559Z,8.40
2023-02-22T12:44:20.660Z,11.70
2023-02-22T12:45:20.790Z,7.60
2023-02-22T12:46:21.080Z,8.30
2023-02-22T12:47:21.150Z,5.80
2023-02-22T12:48:21.452Z,7.30
2023-02-22T12:49:21.541Z,8.50
2023-02-22T12:50:21.792Z,9.20
2023-02-22T12:51:21.911Z,7.50
2023-02-22T12:52:22.400Z,6.90
2023-02-22T12:53:22.353Z,5.30
2023-02-22T12:54:22.505Z,3.10
2023-02-22T12:55:22.645Z,4.50
2023-02-22T12:56:22.831Z,4.50
2023-02-22T12:57:22.923Z,3.70
2023-02-22T12:58:23.090Z,3.30
2023-02-22T12:59:23.238Z,3.20
2023-02-22T13:00:23.372Z,4.00
2023-02-22T13:01:23.505Z,6.90
2023-02-22T13:02:23.671Z,4.10
2023-02-22T13:03:23.785Z,9.10
2023-02-22T13:04:23.966Z,5.10
2023-02-22T13:05:24.095Z,8.60
2023-02-22T13:06:24.227Z,5.10
2023-02-22T13:07:24.348Z,5.50
2023-02-22T13:08:24.505Z,3.80
2023-02-22T13:09:24.625Z,5.50
2023-02-22T13:10:24.785Z,3.00
2023-02-22T13:11:24.896Z,8.00
2023-02-22T13:12:25.166Z,6.30
2023-02-22T13:13:25.297Z,7.30
2023-02-22T13:14:25.447Z,5.20
2023-02-22T13:15:25.562Z,4.90
2023-02-22T13:16:25.697Z,4.00
2023-02-22T13:17:25.827Z,6.60
2023-02-22T13:18:26.118Z,5.80
2023-02-22T13:19:26.203Z,4.60
2023-02-22T13:20:26.351Z,7.90